Time;durP1;ratioP1;P1;durP2;ratioP2;P2;SDS_P1;SDS_P2;PMS_P1;PMS_P2;Temp;Humidity;BMP_temperature;BMP_pressure;BME280_temperature;BME280_humidity;BME280_pressure;Samples;Min_cycle;Max_cycle;Signal;HPM_P1;HPM_P2
2022/12/19 00:00:21;;;;;;;94.55;33.78;;;;;;;-6.66;92.66;97118.16;2059122;28;20039;-57
2022/12/19 00:01:25;;;;;;;102.05;35.47;;;;;;;-6.61;93.79;97118.34;2058289;28;20050;-58
2022/12/19 00:02:26;;;;;;;107.43;35.20;;;;;;;-6.56;93.63;97107.59;2059010;28;20038;-56
2022/12/19 00:03:27;;;;;;;104.80;34.97;;;;;;;-6.46;93.53;97109.66;2058824;28;20066;-56
2022/12/19 00:04:29;;;;;;;97.63;33.80;;;;;;;-6.50;92.76;97101.91;2059081;28;20047;-56
2022/12/19 00:05:30;;;;;;;103.78;35.03;;;;;;;-6.50;92.91;97097.72;2058875;28;20513;-55
2022/12/19 00:06:31;;;;;;;95.68;34.95;;;;;;;-6.45;93.05;97092.81;2059130;28;20050;-56
2022/12/19 00:07:32;;;;;;;107.25;34.53;;;;;;;-6.51;93.26;97090.94;2059193;28;20050;-57
2022/12/19 00:08:33;;;;;;;99.53;32.85;;;;;;;-6.51;92.19;97088.41;2059080;28;20046;-58
2022/12/19 00:09:34;;;;;;;102.40;32.78;;;;;;;-6.50;92.75;97079.16;2058914;28;20065;-57
2022/12/19 00:10:35;;;;;;;97.30;33.42;;;;;;;-6.57;92.31;97067.13;2059086;28;20043;-58
2022/12/19 00:11:37;;;;;;;98.55;32.58;;;;;;;-6.52;92.82;97079.13;2059302;28;20050;-58
2022/12/19 00:12:38;;;;;;;101.78;34.00;;;;;;;-6.58;92.95;97081.41;2059077;28;20054;-59
2022/12/19 00:13:39;;;;;;;102.07;34.28;;;;;;;-6.58;93.31;97081.41;2059054;28;20050;-59
2022/12/19 00:14:40;;;;;;;98.97;34.40;;;;;;;-6.56;92.94;97087.38;2058515;28;20490;-59
2022/12/19 00:15:42;;;;;;;98.95;34.70;;;;;;;-6.55;92.24;97103.41;2059126;28;20042;-59
2022/12/19 00:16:43;;;;;;;102.43;33.65;;;;;;;-6.50;92.63;97099.38;2059155;28;20057;-59
2022/12/19 00:17:44;;;;;;;103.90;33.13;;;;;;;-6.50;92.51;97099.38;2058765;28;20047;-60
2022/12/19 00:18:45;;;;;;;109.68;35.30;;;;;;;-6.43;92.95;97104.72;2059039;28;20398;-59
2022/12/19 00:19:46;;;;;;;111.15;36.25;;;;;;;-6.52;93.03;97109.44;2058369;28;20050;-59
2022/12/19 00:20:55;;;;;;;98.32;34.67;;;;;;;-6.50;91.92;97104.44;2059097;28;20047;-59
2022/12/19 00:21:56;;;;;;;108.22;35.60;;;;;;;-6.49;92.12;97107.03;2059091;28;20375;-59
2022/12/19 00:22:57;;;;;;;107.60;35.10;;;;;;;-6.50;92.41;97104.44;2059174;28;20050;-58
2022/12/19 00:23:58;;;;;;;110.15;35.83;;;;;;;-6.49;91.93;97101.97;2059126;28;20051;-58
2022/12/19 00:25:00;;;;;;;99.70;32.47;;;;;;;-6.52;91.92;97099.34;2059202;28;20058;-58
2022/12/19 00:26:14;;;;;;;95.00;34.50;;;;;;;-6.52;93.19;97103.50;2058792;28;20038;-58
2022/12/19 00:27:15;;;;;;;103.88;33.47;;;;;;;-6.47;92.27;97110.47;2058803;28;20407;-58
2022/12/19 00:28:16;;;;;;;99.43;35.17;;;;;;;-6.57;93.16;97108.41;2057792;28;20053;-58
2022/12/19 00:29:17;;;;;;;109.00;34.78;;;;;;;-6.50;92.97;97099.38;2058461;28;20066;-58
2022/12/19 00:30:18;;;;;;;110.45;35.95;;;;;;;-6.48;92.26;97105.34;2059050;28;20050;-57
2022/12/19 00:31:20;;;;;;;101.45;33.55;;;;;;;-6.54;92.24;97097.56;2058953;28;20058;-57
2022/12/19 00:32:21;;;;;;;103.70;34.35;;;;;;;-6.44;92.33;97104.69;2058364;28;20055;-58
2022/12/19 00:33:22;;;;;;;113.15;36.40;;;;;;;-6.53;92.71;97079.06;2050254;28;20050;-58
2022/12/19 00:34:23;;;;;;;101.28;34.15;;;;;;;-6.41;92.28;97106.44;2057822;28;20054;-58
2022/12/19 00:35:24;;;;;;;108.15;34.13;;;;;;;-6.35;92.99;97099.94;2057920;28;20062;-58
2022/12/19 00:36:28;;;;;;;104.15;34.67;;;;;;;-6.37;92.66;97100.69;2057764;28;20050;-58
2022/12/19 00:37:29;;;;;;;101.93;37.13;;;;;;;-6.59;92.45;97073.78;2058159;28;20055;-58
2022/12/19 00:38:30;;;;;;;105.63;36.42;;;;;;;-6.51;93.07;97090.94;2058286;28;20050;-57
2022/12/19 00:39:31;;;;;;;106.90;34.47;;;;;;;-6.45;93.00;97101.25;2058973;28;20070;-57
2022/12/19 00:40:32;;;;;;;115.53;37.40;;;;;;;-6.44;92.34;97090.38;2058335;28;20585;-58
2022/12/19 00:41:34;;;;;;;107.18;33.90;;;;;;;-6.35;92.49;97089.81;2057478;28;20537;-58
2022/12/19 00:42:35;;;;;;;95.82;34.33;;;;;;;-6.35;92.09;97091.50;2058023;28;20053;-56
2022/12/19 00:43:36;;;;;;;104.78;34.13;;;;;;;-6.38;92.61;97093.94;2057897;28;20151;-55
2022/12/19 00:44:37;;;;;;;98.18;33.83;;;;;;;-6.33;92.17;97097.47;2058860;28;20050;-55
2022/12/19 00:45:39;;;;;;;98.65;34.85;;;;;;;-6.34;92.42;97094.06;2058818;28;20055;-56
2022/12/19 00:46:40;;;;;;;94.90;35.30;;;;;;;-6.29;92.00;97105.22;2058129;28;20047;-55
2022/12/19 00:47:41;;;;;;;98.90;33.85;;;;;;;-6.29;91.56;97104.34;2058029;28;20062;-56
2022/12/19 00:48:42;;;;;;;105.18;35.05;;;;;;;-6.35;92.42;97105.00;2058013;28;20046;-55
2022/12/19 00:49:43;;;;;;;103.53;35.80;;;;;;;-6.47;91.50;97094.44;2058258;28;20080;-55
2022/12/19 00:50:44;;;;;;;98.10;34.10;;;;;;;-6.43;91.90;97122.41;2058188;28;20050;-56
2022/12/19 00:51:48;;;;;;;99.38;34.72;;;;;;;-6.39;92.10;97125.03;2057882;28;20054;-56
2022/12/19 00:52:49;;;;;;;98.05;33.70;;;;;;;-6.27;92.40;97116.25;2058102;28;20065;-57
2022/12/19 00:53:51;;;;;;;88.93;31.27;;;;;;;-6.23;91.73;97124.78;2058786;28;20058;-57
2022/12/19 00:54:52;;;;;;;95.40;32.75;;;;;;;-6.37;92.37;97124.28;2058565;28;20395;-57
2022/12/19 00:55:53;;;;;;;99.35;31.88;;;;;;;-6.38;91.37;97125.13;2058706;28;20058;-58
2022/12/19 00:56:55;;;;;;;99.70;34.92;;;;;;;-6.48;92.61;97123.91;2058840;28;20066;-57
2022/12/19 00:57:57;;;;;;;103.43;35.38;;;;;;;-6.37;91.45;97113.34;2058766;28;20039;-57
2022/12/19 00:58:58;;;;;;;94.15;34.53;;;;;;;-6.36;91.98;97122.63;2058694;28;20047;-58
2022/12/19 00:59:59;;;;;;;98.45;35.55;;;;;;;-6.43;91.59;97119.88;2058962;28;20058;-58
2022/12/19 01:01:06;;;;;;;95.90;34.90;;;;;;;-6.40;92.20;97126.72;2058563;28;20046;-57
2022/12/19 01:02:07;;;;;;;92.53;32.40;;;;;;;-6.46;91.63;97123.97;2058674;28;20406;-57
2022/12/19 01:03:09;;;;;;;103.38;34.42;;;;;;;-6.42;92.08;97130.84;2057840;28;20038;-64
2022/12/19 01:04:13;;;;;;;97.35;31.65;;;;;;;-6.42;91.46;97123.25;2057959;28;20050;-64
2022/12/19 01:05:16;;;;;;;102.07;34.55;;;;;;;-6.40;91.74;97135.97;2058178;28;20051;-64
2022/12/19 01:06:17;;;;;;;106.28;35.88;;;;;;;-6.35;91.86;97125.22;2058789;28;20483;-64
2022/12/19 01:07:18;;;;;;;95.95;34.28;;;;;;;-6.38;91.48;97126.78;2057581;28;20053;-55
2022/12/19 01:08:19;;;;;;;94.05;32.78;;;;;;;-6.42;91.74;97120.75;2057896;28;20042;-56
2022/12/19 01:09:21;;;;;;;102.18;34.40;;;;;;;-6.53;92.25;97104.31;2058322;28;20054;-56
2022/12/19 01:10:23;;;;;;;92.05;32.55;;;;;;;-6.46;93.07;97121.44;2057911;28;20051;-56
2022/12/19 01:12:46;;;;;;;96.90;32.90;;;;;;;-6.40;92.93;97118.28;2057449;28;20438;-56
2022/12/19 01:13:47;;;;;;;100.25;32.88;;;;;;;-6.40;91.89;97124.19;2057530;28;20065;-55
2022/12/19 01:14:51;;;;;;;94.93;33.15;;;;;;;-6.43;92.83;97126.59;2058585;28;20486;-56
2022/12/19 01:15:52;;;;;;;95.45;33.13;;;;;;;-6.42;92.26;97123.25;2057779;28;20039;-56
2022/12/19 01:16:53;;;;;;;95.97;32.97;;;;;;;-6.33;92.07;97128.69;2057830;28;20054;-56
2022/12/19 01:17:54;;;;;;;98.63;33.47;;;;;;;-6.30;92.76;97127.94;2058516;28;20383;-55
2022/12/19 01:18:55;;;;;;;104.30;32.65;;;;;;;-6.38;91.97;97130.16;2058605;28;20043;-56
2022/12/19 01:19:58;;;;;;;96.10;33.25;;;;;;;-6.42;92.05;97123.25;2057742;28;20057;-56
2022/12/19 01:21:00;;;;;;;103.45;34.40;;;;;;;-6.34;91.82;97131.13;2057674;28;20062;-55
2022/12/19 01:22:01;;;;;;;98.60;34.97;;;;;;;-6.30;92.37;97120.34;2058696;28;20054;-56
2022/12/19 01:23:02;;;;;;;107.60;35.72;;;;;;;-6.25;92.10;97127.28;2058666;28;20054;-56
2022/12/19 01:24:04;;;;;;;100.50;34.42;;;;;;;-6.18;92.48;97125.81;2057849;28;20114;-56
2022/12/19 01:25:05;;;;;;;102.70;34.53;;;;;;;-6.20;91.87;97124.94;2057309;28;20055;-56
2022/12/19 01:26:07;;;;;;;103.03;34.03;;;;;;;-6.13;92.21;97124.31;2058363;28;20026;-56
2022/12/19 01:27:08;;;;;;;101.30;32.95;;;;;;;-6.10;91.92;97128.63;2057748;28;20525;-55
2022/12/19 01:28:12;;;;;;;94.47;34.55;;;;;;;-6.21;92.24;97128.25;2050079;28;20051;-55
2022/12/19 01:29:13;;;;;;;102.65;34.80;;;;;;;-6.27;92.01;97122.97;2057679;28;20093;-57
2022/12/19 01:30:14;;;;;;;92.65;33.08;;;;;;;-6.17;92.43;97127.56;2057989;28;20051;-56
2022/12/19 01:31:15;;;;;;;98.22;34.95;;;;;;;-6.08;91.49;97130.41;2057569;28;20509;-56
2022/12/19 01:32:16;;;;;;;97.03;34.30;;;;;;;-6.02;91.06;97127.22;2058606;28;20043;-58
2022/12/19 01:33:18;;;;;;;89.68;32.90;;;;;;;-6.04;91.47;97121.25;2058661;28;20050;-64
2022/12/19 01:34:19;;;;;;;96.18;32.05;;;;;;;-6.13;91.79;97131.91;2058490;28;20055;-64
2022/12/19 01:35:20;;;;;;;97.60;34.67;;;;;;;-6.18;92.16;97130.03;2058279;28;20059;-64
2022/12/19 01:36:21;;;;;;;99.10;34.47;;;;;;;-6.13;91.09;97131.06;2058450;28;20509;-63
2022/12/19 01:37:22;;;;;;;97.57;34.40;;;;;;;-6.10;91.40;97132.00;2058696;28;20043;-55
2022/12/19 01:38:23;;;;;;;102.28;33.78;;;;;;;-6.12;91.44;97133.66;2057513;28;20418;-57
2022/12/19 01:39:24;;;;;;;95.82;33.72;;;;;;;-6.13;92.10;97126.84;2049804;28;20103;-55
2022/12/19 01:40:25;;;;;;;95.80;31.15;;;;;;;-6.13;91.80;97126.00;2057879;28;20054;-55
2022/12/19 01:41:26;;;;;;;99.63;35.15;;;;;;;-6.13;91.45;97134.44;2058434;28;20061;-55
2022/12/19 01:42:33;;;;;;;97.80;32.85;;;;;;;-6.22;91.03;97126.53;2058706;28;20055;-64
2022/12/19 01:43:59;;;;;;;94.53;32.13;;;;;;;-6.14;91.26;97120.06;2058400;28;20482;-64
2022/12/19 01:45:08;;;;;;;95.03;32.00;;;;;;;-6.04;91.68;97119.59;2057303;28;20461;-63
2022/12/19 01:46:10;;;;;;;89.15;32.17;;;;;;;-6.09;91.45;97113.50;2057693;28;20414;-64
2022/12/19 01:47:11;;;;;;;87.25;30.60;;;;;;;-6.18;91.15;97123.28;2049635;28;20458;-64
2022/12/19 01:48:15;;;;;;;97.07;33.50;;;;;;;-6.24;91.69;97113.81;2033503;29;20047;-64
2022/12/19 01:49:22;;;;;;;96.85;33.30;;;;;;;-6.22;91.68;97109.69;2042576;28;20516;-63
2022/12/19 01:50:31;;;;;;;105.13;34.45;;;;;;;-6.23;92.53;97110.50;2050160;28;20062;-64
2022/12/19 01:51:40;;;;;;;96.85;33.88;;;;;;;-6.20;92.49;97117.34;2049487;29;20058;-64
2022/12/19 01:52:41;;;;;;;99.68;35.72;;;;;;;-6.10;92.22;97126.94;2044463;28;20067;-58
2022/12/19 01:53:50;;;;;;;97.18;33.58;;;;;;;-6.13;92.38;97126.00;2041287;29;20047;-58
2022/12/19 01:54:51;;;;;;;89.00;33.15;;;;;;;-6.18;91.84;97128.34;2042287;29;20051;-58
2022/12/19 01:55:52;;;;;;;93.80;32.70;;;;;;;-6.19;91.36;97134.22;2050545;28;20055;-57
2022/12/19 01:56:54;;;;;;;94.57;32.05;;;;;;;-6.23;91.59;97132.38;2048925;29;20062;-58
2022/12/19 01:57:55;;;;;;;102.78;35.00;;;;;;;-6.35;91.22;97127.75;2041649;29;20048;-58
2022/12/19 01:58:57;;;;;;;92.38;33.80;;;;;;;-6.37;92.37;97136.09;2049746;28;20039;-57
2022/12/19 01:59:58;;;;;;;106.45;34.03;;;;;;;-6.38;91.53;97134.38;2057451;28;20054;-58
2022/12/19 02:00:59;;;;;;;96.72;32.13;;;;;;;-6.40;91.39;97129.25;2057404;28;20046;-57
2022/12/19 02:02:40;;;;;;;102.32;35.28;;;;;;;-6.38;91.67;97131.84;2058287;28;20549;-58
2022/12/19 02:03:41;;;;;;;90.78;29.80;;;;;;;-6.44;92.40;97128.28;2032292;29;20059;-58
2022/12/19 02:04:44;;;;;;;101.90;34.50;;;;;;;-6.48;91.60;97123.06;2055004;28;20050;-58
2022/12/19 02:05:45;;;;;;;88.30;32.35;;;;;;;-6.53;91.82;97127.94;2057390;28;20442;-58
2022/12/19 02:06:46;;;;;;;98.20;32.53;;;;;;;-6.55;92.61;97123.63;2049099;28;20074;-58
2022/12/19 02:07:48;;;;;;;103.97;34.97;;;;;;;-6.45;92.82;97134.13;2042311;28;20051;-55
2022/12/19 02:08:49;;;;;;;97.60;32.88;;;;;;;-6.43;92.54;97131.66;2033551;29;20516;-56
2022/12/19 02:09:54;;;;;;;99.82;33.83;;;;;;;-6.44;92.68;97130.81;2033784;29;20131;-55
2022/12/19 02:10:55;;;;;;;97.38;33.15;;;;;;;-6.49;92.37;97126.41;2034630;29;20055;-55
2022/12/19 02:11:57;;;;;;;91.80;33.17;;;;;;;-6.48;91.94;97112.94;2049385;28;20081;-55
2022/12/19 02:12:58;;;;;;;101.00;34.63;;;;;;;-6.45;92.73;97111.38;2057463;28;20069;-63
2022/12/19 02:14:00;;;;;;;100.32;33.38;;;;;;;-6.44;92.12;97104.69;2048759;28;20047;-64
2022/12/19 02:15:03;;;;;;;92.28;33.90;;;;;;;-6.47;92.51;97105.44;2049405;28;20422;-63
2022/12/19 02:16:41;;;;;;;101.15;33.67;;;;;;;-6.48;92.02;97098.63;2048649;29;20047;-63
2022/12/19 02:18:16;;;;;;;105.60;36.55;;;;;;;-6.43;91.41;97098.81;2050859;28;20057;-64
2022/12/19 02:19:54;;;;;;;87.70;29.95;;;;;;;-6.43;92.71;97092.06;2057254;28;20058;-64
2022/12/19 02:21:17;;;;;;;103.70;33.05;;;;;;;-6.44;92.12;97097.94;2053447;28;20034;-64
2022/12/19 02:22:41;;;;;;;101.95;32.33;;;;;;;-6.53;92.31;97100.13;2052248;28;20043;-64
2022/12/19 02:23:58;;;;;;;108.97;35.47;;;;;;;-6.46;92.45;97108.81;2033201;29;20058;-64
2022/12/19 02:25:03;;;;;;;98.90;31.55;;;;;;;-6.49;92.54;97107.03;2047638;28;20432;-64
2022/12/19 02:26:33;;;;;;;95.03;31.23;;;;;;;-6.39;92.93;97115.78;2041706;29;20054;-64
2022/12/19 02:27:58;;;;;;;110.13;34.10;;;;;;;-6.35;91.98;97109.19;2053640;28;20041;-60
2022/12/19 02:29:18;;;;;;;105.15;33.35;;;;;;;-6.44;91.75;97107.22;2052636;28;20046;-61
2022/12/19 02:30:49;;;;;;;102.18;33.85;;;;;;;-6.43;92.15;97104.72;2057539;28;20049;-60
2022/12/19 02:32:23;;;;;;;101.82;33.63;;;;;;;-6.35;92.11;97099.94;2057226;28;20051;-61
2022/12/19 02:33:28;;;;;;;101.18;33.17;;;;;;;-6.30;92.18;97108.56;2049211;28;20054;-60
2022/12/19 02:34:41;;;;;;;104.57;35.25;;;;;;;-6.40;92.12;97098.91;2048716;29;20047;-61
2022/12/19 02:35:52;;;;;;;109.57;33.25;;;;;;;-6.31;91.93;97116.94;2036077;29;20424;-61
2022/12/19 02:37:00;;;;;;;108.65;34.50;;;;;;;-6.31;91.72;97132.09;2036329;29;20432;-61
2022/12/19 02:38:31;;;;;;;101.60;34.33;;;;;;;-6.28;91.61;97127.19;2048711;29;20051;-61
2022/12/19 02:39:40;;;;;;;96.93;31.08;;;;;;;-6.41;92.91;97130.06;2045200;29;20066;-60
2022/12/19 02:40:45;;;;;;;91.50;31.30;;;;;;;-6.49;92.36;97123.88;2043396;28;20570;-60
2022/12/19 02:41:52;;;;;;;96.97;33.95;;;;;;;-6.48;93.16;97123.91;2048704;29;20051;-61
2022/12/19 02:42:58;;;;;;;94.93;32.65;;;;;;;-6.52;93.17;97116.16;2049654;28;20043;-60
2022/12/19 02:43:59;;;;;;;103.43;33.53;;;;;;;-6.39;93.35;97122.53;2040314;29;20052;-61
2022/12/19 02:45:04;;;;;;;104.68;35.55;;;;;;;-6.41;93.16;97122.47;2026439;29;20048;-61
2022/12/19 02:46:05;;;;;;;105.30;34.58;;;;;;;-6.36;92.96;97120.09;2034899;29;20052;-61
2022/12/19 02:47:08;;;;;;;106.10;34.20;;;;;;;-6.37;93.17;97115.84;2049477;28;20050;-60
2022/12/19 02:48:11;;;;;;;102.60;34.88;;;;;;;-6.35;92.76;97124.38;2048793;29;20043;-60
2022/12/19 02:49:12;;;;;;;99.85;34.08;;;;;;;-6.24;92.60;97118.88;2049351;28;20106;-61
2022/12/19 02:50:14;;;;;;;99.63;32.55;;;;;;;-6.28;92.36;97116.19;2049198;29;20055;-61
2022/12/19 02:51:15;;;;;;;102.22;35.25;;;;;;;-6.27;92.89;97116.25;2048950;28;20047;-61
2022/12/19 02:52:19;;;;;;;95.38;32.60;;;;;;;-6.18;92.62;97117.38;2057067;28;20046;-60
2022/12/19 02:53:21;;;;;;;103.90;33.65;;;;;;;-6.16;92.53;97116.63;2056590;28;20051;-61
2022/12/19 02:54:22;;;;;;;96.57;33.10;;;;;;;-6.18;92.42;97119.91;2057187;28;20050;-61
2022/12/19 02:55:23;;;;;;;97.90;32.83;;;;;;;-6.26;91.91;97109.50;2056469;28;20530;-61
2022/12/19 02:56:56;;;;;;;99.30;33.78;;;;;;;-6.22;91.78;97116.41;2033444;29;20051;-61
2022/12/19 02:58:21;;;;;;;100.32;33.88;;;;;;;-6.35;92.00;97106.66;2037485;29;20043;-61
2022/12/19 02:59:33;;;;;;;94.05;30.70;;;;;;;-6.35;91.97;97106.66;2052590;28;20406;-61
2022/12/19 03:00:38;;;;;;;92.80;32.30;;;;;;;-6.28;93.04;97116.19;2042009;29;20411;-61
2022/12/19 03:01:51;;;;;;;97.65;33.30;;;;;;;-6.35;92.57;97106.66;2049855;28;20062;-61
2022/12/19 03:03:18;;;;;;;102.70;32.72;;;;;;;-6.25;92.08;97112.13;2049538;28;20047;-59
2022/12/19 03:04:43;;;;;;;96.68;31.15;;;;;;;-6.30;92.30;97107.69;2037356;29;20511;-59
2022/12/19 03:05:49;;;;;;;84.88;29.48;;;;;;;-6.37;92.58;97090.56;2043023;28;20050;-59
2022/12/19 03:06:58;;;;;;;95.68;33.00;;;;;;;-6.31;92.27;97101.75;2041287;29;20047;-60
2022/12/19 03:08:06;;;;;;;93.15;32.08;;;;;;;-6.32;91.99;97105.09;2027659;29;20044;-59
2022/12/19 03:09:30;;;;;;;93.53;33.97;;;;;;;-6.33;93.32;97103.38;2028489;29;20044;-60
2022/12/19 03:10:42;;;;;;;99.13;32.05;;;;;;;-6.26;93.29;97097.72;2046436;28;20058;-59
2022/12/19 03:11:43;;;;;;;105.35;33.40;;;;;;;-6.27;92.79;97092.63;2042639;29;20499;-60
2022/12/19 03:12:47;;;;;;;96.40;32.45;;;;;;;-6.25;92.14;97096.09;2033691;29;20466;-59
2022/12/19 03:14:20;;;;;;;99.43;32.42;;;;;;;-6.27;92.71;97120.44;2049589;28;20058;-59
2022/12/19 03:15:21;;;;;;;107.35;32.75;;;;;;;-6.22;92.19;97097.03;2045012;29;20059;-59
2022/12/19 03:16:22;;;;;;;103.30;33.38;;;;;;;-6.12;91.94;97092.28;2043439;29;20074;-60
2022/12/19 03:17:24;;;;;;;96.03;33.17;;;;;;;-6.23;92.79;97091.91;2056714;28;20050;-59
2022/12/19 03:18:25;;;;;;;105.80;33.40;;;;;;;-6.26;92.71;97097.72;2048675;29;20055;-60
2022/12/19 03:19:26;;;;;;;92.65;33.13;;;;;;;-6.46;92.23;97086.91;2048929;28;20541;-59
2022/12/19 03:20:49;;;;;;;103.57;33.13;;;;;;;-6.35;93.08;97083.91;2057490;28;20061;-60
2022/12/19 03:21:51;;;;;;;95.13;33.45;;;;;;;-6.39;93.10;97103.16;2057693;28;20039;-59
2022/12/19 03:22:52;;;;;;;96.13;29.50;;;;;;;-6.23;92.84;97114.69;2056402;28;20062;-59
2022/12/19 03:23:54;;;;;;;91.30;29.73;;;;;;;-6.19;92.67;97081.13;2056701;28;20058;-59
2022/12/19 03:24:55;;;;;;;92.80;31.45;;;;;;;-6.28;91.99;97065.63;2049098;29;20466;-59
2022/12/19 03:26:02;;;;;;;101.03;34.17;;;;;;;-6.26;92.25;97056.41;2041006;29;20051;-60
2022/12/19 03:27:15;;;;;;;94.55;33.00;;;;;;;-6.22;92.90;97063.31;2041895;29;20055;-59
2022/12/19 03:28:22;;;;;;;98.60;30.35;;;;;;;-6.18;92.32;97051.63;2036445;29;20424;-59
2022/12/19 03:29:28;;;;;;;102.78;33.65;;;;;;;-6.11;92.55;97078.88;2042748;28;20062;-59
2022/12/19 03:30:30;;;;;;;97.80;33.53;;;;;;;-6.11;91.83;97109.22;2049155;28;20058;-60
2022/12/19 03:31:31;;;;;;;92.88;30.83;;;;;;;-6.09;91.73;97123.63;2049217;28;20054;-60
2022/12/19 03:32:32;;;;;;;89.72;32.65;;;;;;;-6.04;91.52;97104.44;2049141;28;20055;-60
2022/12/19 03:33:34;;;;;;;97.95;33.05;;;;;;;-6.12;91.44;97123.53;2049380;28;20066;-59
2022/12/19 03:34:41;;;;;;;101.32;32.33;;;;;;;-6.17;91.46;97126.66;2050033;28;20058;-59
2022/12/19 03:35:42;;;;;;;102.45;33.28;;;;;;;-6.14;91.56;97102.38;2050519;28;20047;-59
2022/12/19 03:36:46;;;;;;;97.65;33.78;;;;;;;-6.22;91.65;97108.84;2043346;29;20063;-59
2022/12/19 03:37:48;;;;;;;94.63;31.25;;;;;;;-6.15;91.64;97152.88;2042681;29;20063;-59
2022/12/19 03:38:49;;;;;;;105.20;34.47;;;;;;;-6.12;92.14;97168.16;2050915;28;20514;-59
2022/12/19 03:39:53;;;;;;;107.63;36.35;;;;;;;-6.15;91.74;97146.16;2050536;28;20051;-60
2022/12/19 03:40:54;;;;;;;94.70;29.83;;;;;;;-6.22;92.06;97144.22;2042708;29;20056;-59
2022/12/19 03:43:15;;;;;;;92.38;31.92;;;;;;;-6.15;92.53;97130.97;2052375;28;20051;-59
2022/12/19 03:44:16;;;;;;;99.15;32.35;;;;;;;-6.18;92.01;97135.06;2053076;28;20063;-60
2022/12/19 03:45:25;;;;;;;101.15;34.55;;;;;;;-6.18;92.35;97146.03;2050486;29;20415;-60
2022/12/19 03:46:26;;;;;;;118.10;34.20;;;;;;;-6.13;92.40;97131.91;2051166;28;20062;-59
2022/12/19 03:47:30;;;;;;;110.53;35.88;;;;;;;-6.25;91.62;97151.72;2050664;28;20039;-59
2022/12/19 03:48:43;;;;;;;89.68;31.00;;;;;;;-6.15;92.12;97133.50;2050640;28;20141;-60
2022/12/19 03:49:44;;;;;;;107.75;34.70;;;;;;;-6.22;91.85;97132.44;2058584;28;20042;-59
2022/12/19 03:51:02;;;;;;;101.88;32.50;;;;;;;-6.18;92.64;97125.81;2058461;28;20433;-60
2022/12/19 03:52:35;;;;;;;91.55;30.92;;;;;;;-6.21;92.33;97118.97;2050829;28;20054;-59
2022/12/19 03:53:59;;;;;;;94.10;31.33;;;;;;;-6.10;92.46;97121.88;2040588;29;20058;-59
2022/12/19 03:55:20;;;;;;;105.43;32.92;;;;;;;-6.15;92.68;97104.84;2057917;28;20046;-60
2022/12/19 03:56:51;;;;;;;99.63;32.90;;;;;;;-6.09;92.49;97113.50;2055586;28;20415;-59
2022/12/19 03:57:56;;;;;;;107.43;32.85;;;;;;;-6.12;92.42;97115.06;2050397;29;20541;-60
2022/12/19 03:59:00;;;;;;;103.47;32.58;;;;;;;-6.17;91.94;97078.63;2044273;29;20046;-59
2022/12/19 04:00:12;;;;;;;104.20;35.58;;;;;;;-6.12;92.61;97113.41;2043073;29;20055;-59
2022/12/19 04:01:15;;;;;;;110.93;33.97;;;;;;;-6.03;91.95;97103.59;2037791;29;20066;-59
2022/12/19 04:02:17;;;;;;;99.55;33.58;;;;;;;-6.02;92.40;97085.09;2050570;28;20426;-60
2022/12/19 04:03:18;;;;;;;108.60;35.50;;;;;;;-6.02;91.94;97107.84;2050430;28;20051;-59
2022/12/19 04:04:20;;;;;;;108.30;34.70;;;;;;;-6.05;92.61;97124.59;2050819;28;20031;-59
2022/12/19 04:05:22;;;;;;;108.88;33.50;;;;;;;-6.05;92.32;97125.44;2058386;28;20047;-59
2022/12/19 04:06:25;;;;;;;105.30;35.90;;;;;;;-6.04;92.59;97103.53;2058320;28;20059;-59
2022/12/19 04:07:26;;;;;;;107.40;35.03;;;;;;;-6.10;92.46;97105.88;2050444;29;20051;-60
2022/12/19 04:08:27;;;;;;;99.97;32.97;;;;;;;-6.14;92.43;97109.97;2042366;29;20407;-59
2022/12/19 04:09:28;;;;;;;103.85;34.95;;;;;;;-6.11;92.22;97101.63;2042492;28;20064;-59
2022/12/19 04:10:30;;;;;;;96.90;32.15;;;;;;;-6.03;91.73;97112.88;2042745;28;20059;-59
2022/12/19 04:11:36;;;;;;;97.07;33.72;;;;;;;-6.05;92.07;97102.69;2034396;29;20059;-59
2022/12/19 04:12:39;;;;;;;102.97;36.40;;;;;;;-5.98;92.16;97103.78;2036023;29;20043;-59
2022/12/19 04:13:51;;;;;;;97.53;33.10;;;;;;;-5.94;92.24;97107.25;2042261;28;20550;-59
2022/12/19 04:14:52;;;;;;;98.00;33.80;;;;;;;-5.99;91.38;97112.16;2058413;28;20053;-60
2022/12/19 04:16:11;;;;;;;97.45;33.08;;;;;;;-6.01;92.16;97112.13;2058186;28;20054;-60
2022/12/19 04:17:24;;;;;;;104.68;33.88;;;;;;;-5.92;92.05;97123.31;2044892;29;20518;-59
2022/12/19 04:18:25;;;;;;;106.18;34.65;;;;;;;-5.94;91.85;97133.41;2051819;28;20050;-60
2022/12/19 04:19:35;;;;;;;102.93;33.00;;;;;;;-5.97;92.01;97128.25;2050594;28;20043;-59
2022/12/19 04:20:38;;;;;;;97.50;31.80;;;;;;;-5.95;91.47;97133.38;2051347;28;20043;-59
2022/12/19 04:21:43;;;;;;;96.68;33.70;;;;;;;-5.92;91.29;97130.91;2050501;28;20054;-59
2022/12/19 04:22:51;;;;;;;96.55;33.05;;;;;;;-5.87;91.78;97135.31;2043223;29;20051;-58
2022/12/19 04:23:56;;;;;;;109.47;33.75;;;;;;;-5.86;91.06;97131.13;2044552;28;20062;-57
2022/12/19 04:24:57;;;;;;;101.55;32.88;;;;;;;-5.85;91.33;97131.19;2042644;29;20051;-58
2022/12/19 04:26:01;;;;;;;95.78;32.67;;;;;;;-5.83;90.95;97133.75;2042597;29;20044;-58
2022/12/19 04:27:03;;;;;;;104.10;34.88;;;;;;;-5.93;91.30;97135.13;2042777;29;20044;-58
2022/12/19 04:28:16;;;;;;;102.97;33.47;;;;;;;-5.95;91.47;97130.84;2042043;29;20051;-58
2022/12/19 04:29:17;;;;;;;103.10;33.33;;;;;;;-5.94;91.42;97142.66;2051171;28;20077;-58
2022/12/19 04:30:18;;;;;;;106.95;34.45;;;;;;;-5.95;91.54;97141.81;2058353;28;20491;-58
2022/12/19 04:31:19;;;;;;;99.53;34.58;;;;;;;-5.83;91.10;97148.94;2058008;28;20050;-58
2022/12/19 04:32:20;;;;;;;106.03;33.80;;;;;;;-5.84;91.67;97137.09;2050323;28;20043;-60
2022/12/19 04:33:22;;;;;;;96.13;34.00;;;;;;;-5.86;91.29;97139.56;2042115;29;20122;-60
2022/12/19 04:34:23;;;;;;;94.45;34.47;;;;;;;-5.87;91.75;97139.53;2050571;28;20534;-60
2022/12/19 04:35:24;;;;;;;102.20;34.22;;;;;;;-5.90;91.77;97134.38;2059106;28;20047;-60
2022/12/19 04:36:25;;;;;;;96.35;32.42;;;;;;;-5.81;91.37;97145.66;2058096;28;20043;-60
2022/12/19 04:37:27;;;;;;;103.75;34.83;;;;;;;-5.83;90.97;97141.34;2057499;28;20054;-61
2022/12/19 04:38:28;;;;;;;93.70;31.83;;;;;;;-6.00;91.20;97134.06;2058721;28;20050;-60
2022/12/19 04:39:29;;;;;;;98.40;32.78;;;;;;;-5.96;91.88;97130.00;2058133;28;20143;-61
2022/12/19 04:40:30;;;;;;;99.75;34.22;;;;;;;-5.92;91.42;97135.97;2057978;28;20442;-60
2022/12/19 04:41:32;;;;;;;107.50;34.55;;;;;;;-5.91;91.97;97128.41;2058779;28;20047;-60
2022/12/19 04:42:33;;;;;;;93.85;34.60;;;;;;;-5.90;91.63;97124.25;2058326;28;20054;-61
2022/12/19 04:43:34;;;;;;;98.63;32.42;;;;;;;-5.90;91.30;97129.31;2058908;28;20053;-61
2022/12/19 04:44:35;;;;;;;93.95;32.63;;;;;;;-5.86;91.57;97126.91;2058175;28;20050;-61
2022/12/19 04:45:36;;;;;;;107.30;33.67;;;;;;;-5.83;91.98;97132.06;2058396;28;20406;-61
2022/12/19 04:46:37;;;;;;;103.95;33.85;;;;;;;-5.79;91.70;97133.06;2058538;28;20051;-61
2022/12/19 04:47:38;;;;;;;102.95;36.85;;;;;;;-5.77;91.54;97133.97;2058963;28;20054;-61
2022/12/19 04:48:39;;;;;;;100.20;33.75;;;;;;;-5.85;91.06;97143.84;2058619;28;20497;-60
2022/12/19 04:49:41;;;;;;;95.82;31.95;;;;;;;-5.84;92.20;97144.69;2058733;28;20031;-61
2022/12/19 04:50:42;;;;;;;95.60;33.65;;;;;;;-5.82;91.50;97138.03;2058736;28;20059;-61
2022/12/19 04:51:43;;;;;;;102.28;35.22;;;;;;;-5.80;91.67;97137.25;2058763;28;20055;-61
2022/12/19 04:52:44;;;;;;;104.60;35.97;;;;;;;-5.82;91.40;97138.88;2058408;28;20046;-61
2022/12/19 04:53:45;;;;;;;105.82;34.88;;;;;;;-5.77;91.76;97136.50;2058109;28;20074;-61
2022/12/19 04:54:46;;;;;;;105.82;35.15;;;;;;;-5.75;91.51;97139.94;2058940;28;20498;-61
2022/12/19 04:55:47;;;;;;;91.22;31.45;;;;;;;-5.76;92.01;97140.75;2058880;28;20058;-61
2022/12/19 04:56:48;;;;;;;89.55;31.77;;;;;;;-5.78;91.55;97135.63;2058558;28;20053;-61
2022/12/19 04:57:49;;;;;;;101.72;33.53;;;;;;;-5.75;91.38;97132.34;2058571;28;20508;-63
2022/12/19 04:58:57;;;;;;;100.30;34.22;;;;;;;-5.73;91.85;97137.47;2058443;28;20043;-63
2022/12/19 04:59:58;;;;;;;99.70;33.58;;;;;;;-5.76;91.73;97146.66;2058878;28;20406;-64
2022/12/19 05:01:03;;;;;;;99.47;33.65;;;;;;;-5.77;91.67;97144.97;2058667;28;20034;-64